sensor_id;sensor_type;location;lat;lon;timestamp;P1;durP1;ratioP1;P2;durP2;ratioP2
31716;SDS011;18301;51.076;17.046;2023-07-31T00:00:14;3.53;;;2.22;;
31716;SDS011;18301;51.076;17.046;2023-07-31T00:05:16;3.67;;;2.03;;
31716;SDS011;18301;51.076;17.046;2023-07-31T00:10:17;3.92;;;2.00;;
31716;SDS011;18301;51.076;17.046;2023-07-31T00:15:19;4.63;;;2.20;;
31716;SDS011;18301;51.076;17.046;2023-07-31T00:20:20;2.95;;;1.80;;
31716;SDS011;18301;51.076;17.046;2023-07-31T00:25:22;5.25;;;2.28;;
31716;SDS011;18301;51.076;17.046;2023-07-31T00:30:24;2.80;;;1.95;;
31716;SDS011;18301;51.076;17.046;2023-07-31T00:35:26;2.88;;;1.85;;
31716;SDS011;18301;51.076;17.046;2023-07-31T00:40:28;3.38;;;2.13;;
31716;SDS011;18301;51.076;17.046;2023-07-31T00:45:29;2.78;;;1.70;;
31716;SDS011;18301;51.076;17.046;2023-07-31T00:50:31;2.55;;;1.70;;
31716;SDS011;18301;51.076;17.046;2023-07-31T00:55:34;3.72;;;1.77;;
31716;SDS011;18301;51.076;17.046;2023-07-31T01:00:35;3.53;;;1.60;;
31716;SDS011;18301;51.076;17.046;2023-07-31T01:05:55;2.97;;;1.70;;
31716;SDS011;18301;51.076;17.046;2023-07-31T01:11:15;3.70;;;1.80;;
31716;SDS011;18301;51.076;17.046;2023-07-31T01:16:20;7.38;;;3.60;;
31716;SDS011;18301;51.076;17.046;2023-07-31T01:26:56;4.15;;;1.88;;
31716;SDS011;18301;51.076;17.046;2023-07-31T01:32:07;3.95;;;2.22;;
31716;SDS011;18301;51.076;17.046;2023-07-31T01:37:10;2.35;;;1.70;;
31716;SDS011;18301;51.076;17.046;2023-07-31T01:42:12;5.55;;;2.15;;
31716;SDS011;18301;51.076;17.046;2023-07-31T01:47:13;3.22;;;2.17;;
31716;SDS011;18301;51.076;17.046;2023-07-31T01:52:15;7.57;;;2.10;;
31716;SDS011;18301;51.076;17.046;2023-07-31T01:57:16;2.25;;;1.40;;
31716;SDS011;18301;51.076;17.046;2023-07-31T02:02:18;9.68;;;1.50;;
31716;SDS011;18301;51.076;17.046;2023-07-31T02:07:19;4.88;;;1.52;;
31716;SDS011;18301;51.076;17.046;2023-07-31T02:12:20;3.95;;;1.83;;
31716;SDS011;18301;51.076;17.046;2023-07-31T02:17:22;2.53;;;1.60;;
31716;SDS011;18301;51.076;17.046;2023-07-31T02:22:24;5.43;;;2.03;;
31716;SDS011;18301;51.076;17.046;2023-07-31T02:27:25;6.85;;;2.70;;
31716;SDS011;18301;51.076;17.046;2023-07-31T02:32:28;4.05;;;1.50;;
31716;SDS011;18301;51.076;17.046;2023-07-31T02:37:30;8.23;;;2.00;;
31716;SDS011;18301;51.076;17.046;2023-07-31T02:42:31;3.67;;;1.60;;
31716;SDS011;18301;51.076;17.046;2023-07-31T02:47:33;4.28;;;1.58;;
31716;SDS011;18301;51.076;17.046;2023-07-31T02:52:34;3.30;;;1.90;;
31716;SDS011;18301;51.076;17.046;2023-07-31T02:57:36;2.83;;;1.60;;
31716;SDS011;18301;51.076;17.046;2023-07-31T03:02:38;6.85;;;1.60;;
31716;SDS011;18301;51.076;17.046;2023-07-31T03:07:40;3.25;;;1.92;;
31716;SDS011;18301;51.076;17.046;2023-07-31T03:12:44;4.38;;;1.50;;
31716;SDS011;18301;51.076;17.046;2023-07-31T03:17:48;3.05;;;1.58;;
31716;SDS011;18301;51.076;17.046;2023-07-31T03:22:49;3.83;;;2.25;;
31716;SDS011;18301;51.076;17.046;2023-07-31T03:27:51;6.53;;;2.00;;
31716;SDS011;18301;51.076;17.046;2023-07-31T03:32:52;4.13;;;1.92;;
31716;SDS011;18301;51.076;17.046;2023-07-31T03:37:54;4.43;;;1.80;;
31716;SDS011;18301;51.076;17.046;2023-07-31T03:42:55;6.85;;;2.00;;
31716;SDS011;18301;51.076;17.046;2023-07-31T03:47:57;3.10;;;1.45;;
31716;SDS011;18301;51.076;17.046;2023-07-31T03:52:58;4.47;;;2.17;;
31716;SDS011;18301;51.076;17.046;2023-07-31T03:58:00;3.65;;;1.70;;
31716;SDS011;18301;51.076;17.046;2023-07-31T04:03:02;3.42;;;1.70;;
31716;SDS011;18301;51.076;17.046;2023-07-31T04:08:03;3.05;;;1.98;;
31716;SDS011;18301;51.076;17.046;2023-07-31T04:13:05;7.15;;;2.55;;
31716;SDS011;18301;51.076;17.046;2023-07-31T04:18:06;6.68;;;1.90;;
31716;SDS011;18301;51.076;17.046;2023-07-31T04:23:08;6.35;;;1.80;;
31716;SDS011;18301;51.076;17.046;2023-07-31T04:28:10;7.22;;;2.10;;
31716;SDS011;18301;51.076;17.046;2023-07-31T04:33:12;5.30;;;2.00;;
31716;SDS011;18301;51.076;17.046;2023-07-31T04:38:14;5.72;;;2.00;;
31716;SDS011;18301;51.076;17.046;2023-07-31T04:43:15;6.25;;;2.55;;
31716;SDS011;18301;51.076;17.046;2023-07-31T04:48:17;3.83;;;2.38;;
31716;SDS011;18301;51.076;17.046;2023-07-31T04:53:18;4.90;;;2.75;;
31716;SDS011;18301;51.076;17.046;2023-07-31T04:58:20;7.32;;;2.70;;
31716;SDS011;18301;51.076;17.046;2023-07-31T05:03:21;4.70;;;2.20;;
31716;SDS011;18301;51.076;17.046;2023-07-31T05:08:23;3.22;;;2.10;;
31716;SDS011;18301;51.076;17.046;2023-07-31T05:13:24;4.75;;;2.20;;
31716;SDS011;18301;51.076;17.046;2023-07-31T05:18:26;4.07;;;1.90;;
31716;SDS011;18301;51.076;17.046;2023-07-31T05:23:27;4.15;;;1.85;;
31716;SDS011;18301;51.076;17.046;2023-07-31T05:28:29;4.72;;;2.20;;
31716;SDS011;18301;51.076;17.046;2023-07-31T05:33:31;2.67;;;1.80;;
31716;SDS011;18301;51.076;17.046;2023-07-31T05:38:32;4.97;;;1.88;;
31716;SDS011;18301;51.076;17.046;2023-07-31T05:43:34;4.70;;;1.70;;
31716;SDS011;18301;51.076;17.046;2023-07-31T05:48:35;3.65;;;1.95;;
31716;SDS011;18301;51.076;17.046;2023-07-31T05:53:37;2.17;;;1.48;;
31716;SDS011;18301;51.076;17.046;2023-07-31T05:58:42;4.15;;;1.60;;
31716;SDS011;18301;51.076;17.046;2023-07-31T06:03:43;3.88;;;1.60;;
31716;SDS011;18301;51.076;17.046;2023-07-31T06:08:45;2.97;;;1.40;;
31716;SDS011;18301;51.076;17.046;2023-07-31T06:13:46;3.65;;;1.33;;
31716;SDS011;18301;51.076;17.046;2023-07-31T06:18:49;3.80;;;1.50;;
31716;SDS011;18301;51.076;17.046;2023-07-31T06:23:51;4.68;;;1.90;;
31716;SDS011;18301;51.076;17.046;2023-07-31T06:28:52;5.35;;;1.88;;
31716;SDS011;18301;51.076;17.046;2023-07-31T06:33:54;3.80;;;1.58;;
31716;SDS011;18301;51.076;17.046;2023-07-31T06:38:55;5.30;;;1.40;;
31716;SDS011;18301;51.076;17.046;2023-07-31T06:43:57;3.55;;;1.88;;
31716;SDS011;18301;51.076;17.046;2023-07-31T06:48:58;3.65;;;1.63;;
31716;SDS011;18301;51.076;17.046;2023-07-31T06:54:00;3.75;;;1.60;;
31716;SDS011;18301;51.076;17.046;2023-07-31T06:59:01;3.08;;;1.73;;
31716;SDS011;18301;51.076;17.046;2023-07-31T07:04:03;5.88;;;1.48;;
31716;SDS011;18301;51.076;17.046;2023-07-31T07:09:04;4.15;;;1.70;;
31716;SDS011;18301;51.076;17.046;2023-07-31T07:14:06;6.88;;;1.75;;
31716;SDS011;18301;51.076;17.046;2023-07-31T07:19:08;2.20;;;1.48;;
31716;SDS011;18301;51.076;17.046;2023-07-31T07:24:09;3.42;;;1.25;;
31716;SDS011;18301;51.076;17.046;2023-07-31T07:29:10;3.83;;;1.45;;
31716;SDS011;18301;51.076;17.046;2023-07-31T07:34:12;3.63;;;1.35;;
31716;SDS011;18301;51.076;17.046;2023-07-31T07:39:14;1.83;;;1.30;;
31716;SDS011;18301;51.076;17.046;2023-07-31T07:44:15;4.72;;;1.55;;
31716;SDS011;18301;51.076;17.046;2023-07-31T07:49:17;3.10;;;1.30;;
31716;SDS011;18301;51.076;17.046;2023-07-31T07:54:18;5.75;;;1.60;;
31716;SDS011;18301;51.076;17.046;2023-07-31T07:59:21;1.95;;;1.50;;
31716;SDS011;18301;51.076;17.046;2023-07-31T08:04:23;2.97;;;1.35;;
31716;SDS011;18301;51.076;17.046;2023-07-31T08:09:24;3.08;;;1.50;;
31716;SDS011;18301;51.076;17.046;2023-07-31T08:14:26;3.53;;;1.50;;
31716;SDS011;18301;51.076;17.046;2023-07-31T08:19:27;2.85;;;1.60;;
31716;SDS011;18301;51.076;17.046;2023-07-31T08:24:29;2.72;;;1.50;;
31716;SDS011;18301;51.076;17.046;2023-07-31T08:29:31;1.88;;;1.30;;
31716;SDS011;18301;51.076;17.046;2023-07-31T08:34:32;3.83;;;1.70;;
31716;SDS011;18301;51.076;17.046;2023-07-31T08:39:34;2.15;;;1.67;;
31716;SDS011;18301;51.076;17.046;2023-07-31T08:44:35;4.40;;;1.65;;
31716;SDS011;18301;51.076;17.046;2023-07-31T08:49:38;2.85;;;1.58;;
31716;SDS011;18301;51.076;17.046;2023-07-31T08:54:41;2.10;;;1.50;;
31716;SDS011;18301;51.076;17.046;2023-07-31T08:59:42;2.97;;;1.67;;
31716;SDS011;18301;51.076;17.046;2023-07-31T09:04:45;7.35;;;2.35;;
31716;SDS011;18301;51.076;17.046;2023-07-31T09:09:47;5.18;;;2.42;;
31716;SDS011;18301;51.076;17.046;2023-07-31T09:14:48;6.03;;;2.40;;
31716;SDS011;18301;51.076;17.046;2023-07-31T09:19:50;3.50;;;2.33;;
31716;SDS011;18301;51.076;17.046;2023-07-31T09:24:51;4.00;;;1.98;;
31716;SDS011;18301;51.076;17.046;2023-07-31T09:29:59;3.75;;;1.88;;
31716;SDS011;18301;51.076;17.046;2023-07-31T09:35:01;6.18;;;2.20;;
31716;SDS011;18301;51.076;17.046;2023-07-31T09:40:02;2.72;;;1.73;;
31716;SDS011;18301;51.076;17.046;2023-07-31T09:45:07;3.88;;;2.03;;
31716;SDS011;18301;51.076;17.046;2023-07-31T09:50:17;4.07;;;1.85;;
31716;SDS011;18301;51.076;17.046;2023-07-31T09:55:20;3.50;;;2.03;;
31716;SDS011;18301;51.076;17.046;2023-07-31T10:00:22;7.10;;;1.90;;
31716;SDS011;18301;51.076;17.046;2023-07-31T10:05:30;8.50;;;2.80;;
31716;SDS011;18301;51.076;17.046;2023-07-31T10:10:37;2.97;;;1.98;;
31716;SDS011;18301;51.076;17.046;2023-07-31T10:15:43;2.00;;;1.80;;
31716;SDS011;18301;51.076;17.046;2023-07-31T10:20:46;3.70;;;1.67;;
31716;SDS011;18301;51.076;17.046;2023-07-31T10:25:48;3.10;;;1.38;;
31716;SDS011;18301;51.076;17.046;2023-07-31T10:30:51;3.58;;;1.30;;
31716;SDS011;18301;51.076;17.046;2023-07-31T10:36:11;3.33;;;1.38;;
31716;SDS011;18301;51.076;17.046;2023-07-31T10:41:13;4.22;;;1.13;;
31716;SDS011;18301;51.076;17.046;2023-07-31T10:46:15;3.08;;;1.50;;
31716;SDS011;18301;51.076;17.046;2023-07-31T10:51:17;1.92;;;1.20;;
31716;SDS011;18301;51.076;17.046;2023-07-31T10:56:22;3.95;;;1.40;;
31716;SDS011;18301;51.076;17.046;2023-07-31T11:01:34;1.95;;;1.48;;
31716;SDS011;18301;51.076;17.046;2023-07-31T11:06:58;3.20;;;1.65;;
31716;SDS011;18301;51.076;17.046;2023-07-31T11:12:01;2.47;;;1.60;;
31716;SDS011;18301;51.076;17.046;2023-07-31T11:17:05;2.47;;;1.67;;
31716;SDS011;18301;51.076;17.046;2023-07-31T11:22:08;2.20;;;1.52;;
31716;SDS011;18301;51.076;17.046;2023-07-31T11:27:10;2.10;;;1.60;;
31716;SDS011;18301;51.076;17.046;2023-07-31T11:32:15;2.35;;;1.83;;
31716;SDS011;18301;51.076;17.046;2023-07-31T11:37:18;2.67;;;1.90;;
31716;SDS011;18301;51.076;17.046;2023-07-31T11:42:20;3.15;;;1.92;;
31716;SDS011;18301;51.076;17.046;2023-07-31T11:47:21;2.78;;;2.10;;
31716;SDS011;18301;51.076;17.046;2023-07-31T11:52:23;3.58;;;1.80;;
31716;SDS011;18301;51.076;17.046;2023-07-31T11:57:25;2.25;;;1.92;;
31716;SDS011;18301;51.076;17.046;2023-07-31T12:02:28;2.33;;;2.00;;
31716;SDS011;18301;51.076;17.046;2023-07-31T12:07:42;2.95;;;2.17;;
31716;SDS011;18301;51.076;17.046;2023-07-31T12:12:54;2.50;;;2.15;;
31716;SDS011;18301;51.076;17.046;2023-07-31T12:17:57;2.38;;;1.80;;
31716;SDS011;18301;51.076;17.046;2023-07-31T12:22:58;3.17;;;1.90;;
31716;SDS011;18301;51.076;17.046;2023-07-31T12:28:06;3.08;;;2.08;;
31716;SDS011;18301;51.076;17.046;2023-07-31T12:33:13;4.95;;;2.60;;
31716;SDS011;18301;51.076;17.046;2023-07-31T12:38:16;2.80;;;2.20;;
31716;SDS011;18301;51.076;17.046;2023-07-31T12:43:17;3.38;;;2.28;;
31716;SDS011;18301;51.076;17.046;2023-07-31T12:48:19;3.20;;;2.50;;
31716;SDS011;18301;51.076;17.046;2023-07-31T12:53:20;3.95;;;2.17;;
31716;SDS011;18301;51.076;17.046;2023-07-31T12:58:22;4.00;;;2.20;;
31716;SDS011;18301;51.076;17.046;2023-07-31T13:03:24;3.92;;;2.45;;
31716;SDS011;18301;51.076;17.046;2023-07-31T13:08:26;4.57;;;2.40;;
31716;SDS011;18301;51.076;17.046;2023-07-31T13:13:27;4.43;;;2.60;;
31716;SDS011;18301;51.076;17.046;2023-07-31T13:18:30;3.97;;;2.45;;
31716;SDS011;18301;51.076;17.046;2023-07-31T13:23:32;4.90;;;2.47;;
31716;SDS011;18301;51.076;17.046;2023-07-31T13:28:33;4.18;;;2.67;;
31716;SDS011;18301;51.076;17.046;2023-07-31T13:33:35;3.17;;;2.55;;
31716;SDS011;18301;51.076;17.046;2023-07-31T13:38:40;6.38;;;2.30;;
31716;SDS011;18301;51.076;17.046;2023-07-31T13:43:41;3.78;;;2.60;;
31716;SDS011;18301;51.076;17.046;2023-07-31T13:48:43;3.35;;;2.70;;
31716;SDS011;18301;51.076;17.046;2023-07-31T13:53:44;4.82;;;2.92;;
31716;SDS011;18301;51.076;17.046;2023-07-31T13:58:45;3.45;;;2.50;;
31716;SDS011;18301;51.076;17.046;2023-07-31T14:03:47;2.55;;;2.17;;
31716;SDS011;18301;51.076;17.046;2023-07-31T14:08:48;4.32;;;2.58;;
31716;SDS011;18301;51.076;17.046;2023-07-31T14:13:50;4.15;;;2.70;;
31716;SDS011;18301;51.076;17.046;2023-07-31T14:18:52;2.80;;;2.50;;
31716;SDS011;18301;51.076;17.046;2023-07-31T14:23:55;3.90;;;2.47;;
31716;SDS011;18301;51.076;17.046;2023-07-31T14:28:56;3.55;;;2.45;;
31716;SDS011;18301;51.076;17.046;2023-07-31T14:33:58;3.70;;;2.40;;
31716;SDS011;18301;51.076;17.046;2023-07-31T14:38:59;4.70;;;2.42;;
31716;SDS011;18301;51.076;17.046;2023-07-31T14:44:01;2.60;;;2.30;;
31716;SDS011;18301;51.076;17.046;2023-07-31T14:49:02;5.25;;;2.45;;
31716;SDS011;18301;51.076;17.046;2023-07-31T14:54:04;2.90;;;2.08;;
31716;SDS011;18301;51.076;17.046;2023-07-31T14:59:05;4.18;;;2.38;;
31716;SDS011;18301;51.076;17.046;2023-07-31T15:04:08;2.63;;;2.10;;
31716;SDS011;18301;51.076;17.046;2023-07-31T15:09:10;4.22;;;2.47;;
31716;SDS011;18301;51.076;17.046;2023-07-31T15:14:12;4.75;;;2.22;;
31716;SDS011;18301;51.076;17.046;2023-07-31T15:19:17;2.35;;;2.10;;
31716;SDS011;18301;51.076;17.046;2023-07-31T15:24:18;3.72;;;2.28;;
31716;SDS011;18301;51.076;17.046;2023-07-31T15:29:21;2.95;;;2.30;;
31716;SDS011;18301;51.076;17.046;2023-07-31T15:34:23;3.67;;;2.42;;
31716;SDS011;18301;51.076;17.046;2023-07-31T15:39:25;3.20;;;2.20;;
31716;SDS011;18301;51.076;17.046;2023-07-31T15:44:27;4.78;;;2.58;;
31716;SDS011;18301;51.076;17.046;2023-07-31T15:49:29;3.28;;;1.98;;
31716;SDS011;18301;51.076;17.046;2023-07-31T15:54:30;3.10;;;2.28;;
31716;SDS011;18301;51.076;17.046;2023-07-31T15:59:32;3.42;;;2.10;;
31716;SDS011;18301;51.076;17.046;2023-07-31T16:04:33;2.65;;;2.13;;
31716;SDS011;18301;51.076;17.046;2023-07-31T16:09:35;2.67;;;2.20;;
31716;SDS011;18301;51.076;17.046;2023-07-31T16:14:36;2.40;;;1.60;;
31716;SDS011;18301;51.076;17.046;2023-07-31T16:19:38;2.78;;;1.83;;
31716;SDS011;18301;51.076;17.046;2023-07-31T16:24:40;3.63;;;1.75;;
31716;SDS011;18301;51.076;17.046;2023-07-31T16:29:41;2.70;;;1.90;;
31716;SDS011;18301;51.076;17.046;2023-07-31T16:34:43;2.45;;;1.70;;
31716;SDS011;18301;51.076;17.046;2023-07-31T16:39:44;2.58;;;1.83;;
31716;SDS011;18301;51.076;17.046;2023-07-31T16:44:49;2.53;;;1.80;;
31716;SDS011;18301;51.076;17.046;2023-07-31T16:49:50;2.35;;;1.70;;
31716;SDS011;18301;51.076;17.046;2023-07-31T16:54:52;3.95;;;1.77;;
31716;SDS011;18301;51.076;17.046;2023-07-31T16:59:54;2.50;;;1.67;;
31716;SDS011;18301;51.076;17.046;2023-07-31T17:04:55;3.60;;;1.83;;
31716;SDS011;18301;51.076;17.046;2023-07-31T17:09:57;2.53;;;1.63;;
31716;SDS011;18301;51.076;17.046;2023-07-31T17:14:59;4.82;;;1.75;;
31716;SDS011;18301;51.076;17.046;2023-07-31T17:20:00;2.78;;;1.92;;
31716;SDS011;18301;51.076;17.046;2023-07-31T17:25:02;3.50;;;1.73;;
31716;SDS011;18301;51.076;17.046;2023-07-31T17:30:05;4.07;;;1.70;;
31716;SDS011;18301;51.076;17.046;2023-07-31T17:35:07;2.22;;;1.48;;
31716;SDS011;18301;51.076;17.046;2023-07-31T17:40:09;3.72;;;1.90;;
31716;SDS011;18301;51.076;17.046;2023-07-31T17:45:11;5.25;;;2.00;;
31716;SDS011;18301;51.076;17.046;2023-07-31T17:50:13;2.58;;;1.70;;
31716;SDS011;18301;51.076;17.046;2023-07-31T17:55:14;2.88;;;1.95;;
31716;SDS011;18301;51.076;17.046;2023-07-31T18:00:16;3.47;;;2.28;;
31716;SDS011;18301;51.076;17.046;2023-07-31T18:05:17;3.83;;;2.33;;
31716;SDS011;18301;51.076;17.046;2023-07-31T18:10:19;3.90;;;1.95;;
31716;SDS011;18301;51.076;17.046;2023-07-31T18:15:21;3.60;;;2.22;;
31716;SDS011;18301;51.076;17.046;2023-07-31T18:20:22;3.83;;;2.22;;
31716;SDS011;18301;51.076;17.046;2023-07-31T18:25:24;4.70;;;2.03;;
31716;SDS011;18301;51.076;17.046;2023-07-31T18:30:25;5.10;;;2.10;;
31716;SDS011;18301;51.076;17.046;2023-07-31T18:35:27;3.83;;;2.10;;
31716;SDS011;18301;51.076;17.046;2023-07-31T18:40:28;4.95;;;2.78;;
31716;SDS011;18301;51.076;17.046;2023-07-31T18:45:31;3.28;;;1.90;;
31716;SDS011;18301;51.076;17.046;2023-07-31T18:50:33;5.05;;;2.20;;
31716;SDS011;18301;51.076;17.046;2023-07-31T18:55:35;3.97;;;2.28;;
31716;SDS011;18301;51.076;17.046;2023-07-31T19:00:36;3.78;;;2.28;;
31716;SDS011;18301;51.076;17.046;2023-07-31T19:05:38;3.58;;;2.10;;
31716;SDS011;18301;51.076;17.046;2023-07-31T19:10:40;4.57;;;2.45;;
31716;SDS011;18301;51.076;17.046;2023-07-31T19:15:42;3.22;;;2.20;;
31716;SDS011;18301;51.076;17.046;2023-07-31T19:20:43;5.65;;;2.80;;
31716;SDS011;18301;51.076;17.046;2023-07-31T19:25:45;5.82;;;2.70;;
31716;SDS011;18301;51.076;17.046;2023-07-31T19:30:46;4.65;;;2.83;;
31716;SDS011;18301;51.076;17.046;2023-07-31T19:35:58;4.55;;;2.42;;
31716;SDS011;18301;51.076;17.046;2023-07-31T19:41:00;4.90;;;2.63;;
31716;SDS011;18301;51.076;17.046;2023-07-31T19:46:02;4.82;;;2.60;;
31716;SDS011;18301;51.076;17.046;2023-07-31T19:51:03;6.32;;;2.67;;
31716;SDS011;18301;51.076;17.046;2023-07-31T19:56:05;4.47;;;3.03;;
31716;SDS011;18301;51.076;17.046;2023-07-31T20:01:07;4.30;;;2.60;;
31716;SDS011;18301;51.076;17.046;2023-07-31T20:06:09;4.50;;;2.78;;
31716;SDS011;18301;51.076;17.046;2023-07-31T20:11:10;5.47;;;2.78;;
31716;SDS011;18301;51.076;17.046;2023-07-31T20:16:12;5.47;;;3.03;;
31716;SDS011;18301;51.076;17.046;2023-07-31T20:21:13;4.22;;;2.65;;
31716;SDS011;18301;51.076;17.046;2023-07-31T20:26:15;6.45;;;2.63;;
31716;SDS011;18301;51.076;17.046;2023-07-31T20:31:16;7.03;;;2.95;;
31716;SDS011;18301;51.076;17.046;2023-07-31T20:36:18;5.78;;;2.92;;
31716;SDS011;18301;51.076;17.046;2023-07-31T20:41:19;6.35;;;3.28;;
31716;SDS011;18301;51.076;17.046;2023-07-31T20:46:21;4.30;;;2.85;;
31716;SDS011;18301;51.076;17.046;2023-07-31T20:51:22;5.70;;;2.80;;
31716;SDS011;18301;51.076;17.046;2023-07-31T20:56:24;5.75;;;2.70;;
31716;SDS011;18301;51.076;17.046;2023-07-31T21:01:25;4.22;;;2.50;;
31716;SDS011;18301;51.076;17.046;2023-07-31T21:06:27;6.35;;;3.60;;
31716;SDS011;18301;51.076;17.046;2023-07-31T21:11:29;4.78;;;2.58;;
31716;SDS011;18301;51.076;17.046;2023-07-31T21:16:32;4.38;;;2.53;;
31716;SDS011;18301;51.076;17.046;2023-07-31T21:21:33;5.05;;;2.65;;
31716;SDS011;18301;51.076;17.046;2023-07-31T21:26:35;6.88;;;2.55;;
31716;SDS011;18301;51.076;17.046;2023-07-31T21:31:36;4.90;;;2.47;;
31716;SDS011;18301;51.076;17.046;2023-07-31T21:36:38;7.72;;;2.80;;
31716;SDS011;18301;51.076;17.046;2023-07-31T21:41:40;4.70;;;2.75;;
31716;SDS011;18301;51.076;17.046;2023-07-31T21:46:42;6.28;;;3.13;;
31716;SDS011;18301;51.076;17.046;2023-07-31T21:51:44;6.95;;;2.45;;
31716;SDS011;18301;51.076;17.046;2023-07-31T21:56:46;3.05;;;2.05;;
31716;SDS011;18301;51.076;17.046;2023-07-31T22:01:47;6.38;;;2.85;;
31716;SDS011;18301;51.076;17.046;2023-07-31T22:06:49;7.65;;;2.47;;
31716;SDS011;18301;51.076;17.046;2023-07-31T22:11:50;4.82;;;2.50;;
31716;SDS011;18301;51.076;17.046;2023-07-31T22:16:52;4.40;;;2.45;;
31716;SDS011;18301;51.076;17.046;2023-07-31T22:21:55;6.25;;;2.60;;
31716;SDS011;18301;51.076;17.046;2023-07-31T22:26:58;4.20;;;2.63;;
31716;SDS011;18301;51.076;17.046;2023-07-31T22:31:59;4.05;;;2.63;;
31716;SDS011;18301;51.076;17.046;2023-07-31T22:37:01;6.97;;;2.22;;
31716;SDS011;18301;51.076;17.046;2023-07-31T22:42:02;4.40;;;2.80;;
31716;SDS011;18301;51.076;17.046;2023-07-31T22:47:04;6.25;;;2.70;;
31716;SDS011;18301;51.076;17.046;2023-07-31T22:52:06;4.60;;;2.45;;
31716;SDS011;18301;51.076;17.046;2023-07-31T22:57:07;4.40;;;3.00;;
31716;SDS011;18301;51.076;17.046;2023-07-31T23:02:09;3.42;;;2.20;;
31716;SDS011;18301;51.076;17.046;2023-07-31T23:07:10;4.60;;;2.65;;
31716;SDS011;18301;51.076;17.046;2023-07-31T23:12:12;3.72;;;2.33;;
31716;SDS011;18301;51.076;17.046;2023-07-31T23:17:13;3.92;;;2.30;;
31716;SDS011;18301;51.076;17.046;2023-07-31T23:22:15;5.78;;;2.55;;
31716;SDS011;18301;51.076;17.046;2023-07-31T23:27:16;3.40;;;2.30;;
31716;SDS011;18301;51.076;17.046;2023-07-31T23:32:18;3.28;;;2.35;;
31716;SDS011;18301;51.076;17.046;2023-07-31T23:37:20;3.88;;;2.33;;
31716;SDS011;18301;51.076;17.046;2023-07-31T23:42:22;4.07;;;2.60;;
31716;SDS011;18301;51.076;17.046;2023-07-31T23:47:25;3.85;;;2.20;;
31716;SDS011;18301;51.076;17.046;2023-07-31T23:52:27;4.70;;;2.17;;
31716;SDS011;18301;51.076;17.046;2023-07-31T23:57:28;5.88;;;2.60;;
